createdAt,value
2023-05-05T00:00:23.083Z,39.81
2023-05-05T00:03:46.109Z,40.10
2023-05-05T00:06:49.227Z,39.79
2023-05-05T00:09:51.796Z,39.71
2023-05-05T00:12:54.513Z,39.95
2023-05-05T00:15:57.326Z,39.89
2023-05-05T00:18:59.994Z,39.85
2023-05-05T00:22:02.657Z,39.95
2023-05-05T00:25:06.268Z,39.91
2023-05-05T00:28:09.218Z,39.92
2023-05-05T00:31:11.857Z,39.91
2023-05-05T00:34:14.450Z,40.06
2023-05-05T00:37:17.430Z,40.07
2023-05-05T00:40:20.093Z,40.14
2023-05-05T00:43:22.676Z,40.32
2023-05-05T00:46:28.128Z,40.37
2023-05-05T00:49:31.430Z,40.36
2023-05-05T00:52:35.078Z,40.15
2023-05-05T00:55:37.862Z,40.67
2023-05-05T00:58:42.128Z,40.75
2023-05-05T01:01:46.039Z,41.02
2023-05-05T01:04:49.123Z,40.83
2023-05-05T01:08:37.400Z,40.96
2023-05-05T01:12:06.913Z,41.19
2023-05-05T01:15:30.210Z,41.60
2023-05-05T01:18:54.053Z,41.84
2023-05-05T01:22:00.767Z,41.70
2023-05-05T01:25:27.126Z,41.42
2023-05-05T01:28:47.994Z,42.33
2023-05-05T01:31:53.851Z,42.53
2023-05-05T01:35:02.024Z,42.07
2023-05-05T01:38:09.622Z,41.92
2023-05-05T01:41:18.240Z,41.71
2023-05-05T01:44:21.780Z,41.92
2023-05-05T01:47:25.239Z,42.25
2023-05-05T01:50:29.063Z,42.53
2023-05-05T01:53:32.986Z,42.46
2023-05-05T01:56:38.891Z,42.28
2023-05-05T01:59:41.772Z,42.76
2023-05-05T02:02:47.798Z,42.83
2023-05-05T02:05:53.167Z,42.77
2023-05-05T02:08:58.437Z,42.58
2023-05-05T02:12:02.427Z,42.82
2023-05-05T02:15:06.204Z,42.97
2023-05-05T02:18:09.972Z,43.25
2023-05-05T02:21:14.334Z,43.52
2023-05-05T02:24:16.856Z,43.25
2023-05-05T02:27:22.224Z,43.16
2023-05-05T02:30:26.017Z,43.17
2023-05-05T02:33:33.326Z,43.36
2023-05-05T02:36:39.598Z,43.39
2023-05-05T02:39:47.453Z,43.47
2023-05-05T02:42:54.582Z,43.57
2023-05-05T02:45:57.226Z,43.72
2023-05-05T02:48:59.922Z,43.77
2023-05-05T02:52:02.786Z,44.03
2023-05-05T02:55:06.610Z,44.22
2023-05-05T02:58:24.876Z,44.48
2023-05-05T03:01:42.528Z,44.52
2023-05-05T03:05:02.729Z,44.83
2023-05-05T03:08:18.302Z,44.90
2023-05-05T03:11:33.174Z,45.01
2023-05-05T03:14:41.048Z,45.62
2023-05-05T03:17:45.110Z,45.79
2023-05-05T03:20:48.655Z,45.67
2023-05-05T03:23:51.244Z,46.30
2023-05-05T03:26:54.051Z,46.39
2023-05-05T03:29:57.150Z,46.57
2023-05-05T03:32:59.799Z,46.96
2023-05-05T03:36:02.480Z,46.88
2023-05-05T03:39:05.033Z,47.43
2023-05-05T03:42:07.613Z,47.20
2023-05-05T03:45:10.402Z,47.30
2023-05-05T03:48:13.149Z,47.37
2023-05-05T03:51:16.517Z,47.56
2023-05-05T03:54:19.081Z,47.66
2023-05-05T03:57:21.952Z,47.68
2023-05-05T04:00:24.576Z,49.08
2023-05-05T04:03:27.419Z,48.42
2023-05-05T04:06:30.155Z,48.45
2023-05-05T04:09:32.821Z,48.95
2023-05-05T04:12:35.592Z,48.79
2023-05-05T04:15:38.814Z,49.01
2023-05-05T04:18:41.435Z,48.95
2023-05-05T04:21:44.090Z,49.19
2023-05-05T04:24:47.374Z,49.57
2023-05-05T04:27:49.947Z,49.26
2023-05-05T04:30:52.855Z,49.86
2023-05-05T04:33:55.571Z,49.47
2023-05-05T04:36:58.275Z,49.94
2023-05-05T04:40:00.900Z,50.19
2023-05-05T04:43:03.399Z,50.16
2023-05-05T04:46:06.061Z,50.16
2023-05-05T04:49:09.400Z,51.26
2023-05-05T04:52:15.881Z,50.76
2023-05-05T04:55:18.528Z,51.14
2023-05-05T04:58:21.133Z,51.50
2023-05-05T05:01:23.773Z,51.90
2023-05-05T05:04:27.470Z,52.07
2023-05-05T05:07:30.045Z,52.08
2023-05-05T05:10:32.639Z,52.25
2023-05-05T05:13:35.191Z,52.15
2023-05-05T05:16:37.807Z,53.33
2023-05-05T05:19:40.427Z,52.40
2023-05-05T05:22:43.058Z,52.47
2023-05-05T05:25:46.110Z,52.33
2023-05-05T05:28:48.952Z,53.67
2023-05-05T05:31:51.595Z,53.13
2023-05-05T05:34:54.160Z,52.91
2023-05-05T05:37:56.692Z,53.32
2023-05-05T05:40:59.209Z,53.52
2023-05-05T05:44:01.885Z,53.52
2023-05-05T05:47:04.495Z,53.52
2023-05-05T05:50:08.245Z,53.79
2023-05-05T05:53:10.983Z,53.54
2023-05-05T05:56:13.668Z,53.72
2023-05-05T05:59:16.333Z,54.47
2023-05-05T06:02:19.261Z,53.80
2023-05-05T06:05:22.027Z,53.31
2023-05-05T06:08:25.304Z,53.76
2023-05-05T06:11:27.898Z,53.66
2023-05-05T06:14:30.671Z,53.72
2023-05-05T06:17:33.296Z,53.98
2023-05-05T06:20:36.009Z,54.09
2023-05-05T06:23:39.058Z,54.19
2023-05-05T06:26:41.969Z,54.40
2023-05-05T06:29:44.621Z,54.77
2023-05-05T06:32:47.205Z,54.13
2023-05-05T06:35:52.108Z,54.02
2023-05-05T06:38:54.635Z,54.52
2023-05-05T06:41:57.232Z,54.56
2023-05-05T06:44:59.762Z,54.81
2023-05-05T06:48:02.404Z,55.20
2023-05-05T06:51:05.127Z,54.80
2023-05-05T06:54:07.799Z,54.63
2023-05-05T06:57:10.661Z,54.52
2023-05-05T07:00:15.075Z,54.54
2023-05-05T07:03:18.032Z,55.37
2023-05-05T07:06:21.010Z,55.12
2023-05-05T07:09:23.573Z,54.44
2023-05-05T07:12:27.875Z,54.96
2023-05-05T07:15:30.639Z,55.25
2023-05-05T07:18:33.206Z,55.10
2023-05-05T07:21:36.729Z,55.29
2023-05-05T07:24:39.365Z,55.32
2023-05-05T07:27:42.039Z,55.25
2023-05-05T07:30:44.689Z,55.57
2023-05-05T07:33:47.266Z,55.04
2023-05-05T07:36:49.917Z,55.11
2023-05-05T07:39:52.575Z,54.66
2023-05-05T07:42:55.121Z,54.74
2023-05-05T07:45:57.771Z,54.25
2023-05-05T07:49:00.431Z,54.37
2023-05-05T07:52:03.153Z,54.23
2023-05-05T07:55:06.329Z,54.76
2023-05-05T07:58:10.964Z,54.43
2023-05-05T08:01:13.696Z,55.34
2023-05-05T08:04:16.288Z,55.42
2023-05-05T08:07:19.017Z,55.57
2023-05-05T08:10:24.599Z,55.38
2023-05-05T08:13:31.292Z,55.86
2023-05-05T08:16:34.570Z,55.91
2023-05-05T08:19:37.271Z,55.94
2023-05-05T08:22:40.832Z,56.07
2023-05-05T08:25:43.741Z,56.32
2023-05-05T08:28:46.996Z,56.10
2023-05-05T08:31:49.753Z,55.90
2023-05-05T08:34:52.430Z,55.83
2023-05-05T08:37:56.026Z,55.27
2023-05-05T08:41:02.058Z,55.18
2023-05-05T08:44:04.689Z,55.43
2023-05-05T08:50:14.450Z,55.52
2023-05-05T08:53:19.863Z,55.42
2023-05-05T08:56:25.919Z,55.28
2023-05-05T08:59:31.549Z,55.24
2023-05-05T09:02:37.267Z,54.35
2023-05-05T09:05:42.206Z,53.81
2023-05-05T09:08:45.246Z,53.35
2023-05-05T09:11:48.448Z,53.68
2023-05-05T09:14:51.016Z,53.30
2023-05-05T09:17:56.633Z,53.26
2023-05-05T09:21:00.345Z,53.61
2023-05-05T09:24:10.497Z,53.18
2023-05-05T09:27:22.875Z,52.30
2023-05-05T09:30:27.200Z,52.31
2023-05-05T09:33:31.247Z,52.22
2023-05-05T09:36:44.468Z,51.97
2023-05-05T09:39:54.593Z,51.85
2023-05-05T09:43:03.104Z,51.57
2023-05-05T09:46:07.496Z,51.63
2023-05-05T09:49:18.372Z,51.95
2023-05-05T09:52:21.021Z,51.58
2023-05-05T09:55:24.714Z,51.61
2023-05-05T09:58:29.741Z,51.17
2023-05-05T10:01:32.548Z,50.98
2023-05-05T10:04:36.130Z,50.46
2023-05-05T10:07:41.191Z,50.17
2023-05-05T10:10:51.835Z,50.11
2023-05-05T10:13:54.459Z,49.50
2023-05-05T10:17:00.932Z,49.54
2023-05-05T10:20:13.002Z,49.32
2023-05-05T10:23:20.402Z,48.96
2023-05-05T10:26:26.854Z,48.98
2023-05-05T10:29:38.727Z,49.25
2023-05-05T10:35:53.774Z,48.89
2023-05-05T10:38:59.608Z,48.67
2023-05-05T10:42:02.408Z,48.65
2023-05-05T10:45:08.548Z,48.29
2023-05-05T10:48:21.469Z,47.71
2023-05-05T10:51:56.043Z,47.75
2023-05-05T10:55:36.886Z,47.32
2023-05-05T10:58:55.483Z,47.14
2023-05-05T11:02:01.354Z,46.75
2023-05-05T11:05:15.309Z,46.43
2023-05-05T11:08:27.453Z,45.95
2023-05-05T11:12:07.555Z,45.81
2023-05-05T11:15:22.346Z,45.64
2023-05-05T11:18:35.997Z,45.23
2023-05-05T11:22:04.323Z,45.40
2023-05-05T11:25:45.529Z,44.88
2023-05-05T11:28:59.883Z,43.97
2023-05-05T11:32:13.797Z,43.80
2023-05-05T11:35:16.843Z,43.28
2023-05-05T11:38:23.338Z,42.29
2023-05-05T11:41:56.664Z,42.97
2023-05-05T11:44:59.632Z,41.82
2023-05-05T11:48:29.726Z,41.39
2023-05-05T11:51:32.487Z,41.07
2023-05-05T11:54:36.946Z,41.04
2023-05-05T11:57:40.067Z,41.38
2023-05-05T12:00:42.744Z,40.06
2023-05-05T12:03:45.989Z,39.15
2023-05-05T12:06:49.165Z,39.85
2023-05-05T12:09:53.452Z,40.03
2023-05-05T12:12:56.195Z,39.90
2023-05-05T12:16:13.222Z,38.77
2023-05-05T12:19:15.921Z,38.28
2023-05-05T12:22:24.417Z,38.54
2023-05-05T12:25:34.869Z,38.19
2023-05-05T12:28:46.624Z,36.81
2023-05-05T12:32:03.915Z,37.32
2023-05-05T12:35:08.173Z,36.20
2023-05-05T12:38:10.881Z,37.01
2023-05-05T12:41:18.276Z,36.23
2023-05-05T12:44:20.938Z,35.66
2023-05-05T12:47:32.107Z,36.59
2023-05-05T12:50:34.867Z,36.54
2023-05-05T12:53:37.533Z,35.98
2023-05-05T12:56:45.574Z,35.63
2023-05-05T12:59:48.464Z,34.71
2023-05-05T13:02:51.394Z,35.57
2023-05-05T13:05:54.232Z,35.40
2023-05-05T13:08:57.211Z,35.03
2023-05-05T13:12:00.170Z,35.09
2023-05-05T13:15:03.464Z,34.65
2023-05-05T13:18:06.210Z,35.48
2023-05-05T13:21:08.921Z,35.12
2023-05-05T13:24:21.267Z,34.07
2023-05-05T13:27:31.307Z,34.71
2023-05-05T13:30:33.846Z,34.45
2023-05-05T13:33:36.799Z,34.25
2023-05-05T13:37:11.260Z,34.51
2023-05-05T13:40:14.057Z,33.83
2023-05-05T13:43:16.669Z,33.29
2023-05-05T13:46:20.311Z,33.55
2023-05-05T13:49:23.071Z,33.27
2023-05-05T13:52:26.087Z,32.87
2023-05-05T13:55:29.712Z,32.72
2023-05-05T13:58:32.299Z,32.40
2023-05-05T14:01:35.753Z,33.98
2023-05-05T14:04:38.496Z,35.11
2023-05-05T14:07:41.259Z,34.80
2023-05-05T14:10:45.412Z,35.15
2023-05-05T14:13:49.966Z,34.83
2023-05-05T14:16:53.001Z,35.34
2023-05-05T14:19:55.808Z,35.52
2023-05-05T14:22:58.787Z,35.68
2023-05-05T14:26:01.487Z,35.58
2023-05-05T14:29:04.056Z,35.97
2023-05-05T14:32:06.627Z,35.68
2023-05-05T14:35:09.397Z,35.79
2023-05-05T14:38:12.131Z,35.78
2023-05-05T14:41:14.973Z,35.37
2023-05-05T14:44:17.743Z,35.79
2023-05-05T14:47:20.508Z,35.90
2023-05-05T14:50:23.395Z,35.64
2023-05-05T14:53:26.825Z,35.75
2023-05-05T14:56:30.144Z,35.97
2023-05-05T14:59:32.809Z,35.57
2023-05-05T15:02:35.447Z,35.64
2023-05-05T15:05:38.126Z,36.16
2023-05-05T15:08:40.707Z,36.55
2023-05-05T15:11:45.114Z,36.44
2023-05-05T15:14:47.773Z,35.87
2023-05-05T15:17:50.345Z,36.36
2023-05-05T15:20:53.014Z,36.01
2023-05-05T15:23:55.937Z,35.30
2023-05-05T15:26:58.644Z,35.53
2023-05-05T15:30:01.415Z,35.34
2023-05-05T15:33:04.093Z,35.82
2023-05-05T15:36:07.299Z,34.86
2023-05-05T15:39:10.015Z,35.11
2023-05-05T15:42:12.676Z,34.79
2023-05-05T15:45:16.678Z,34.58
2023-05-05T15:48:19.748Z,34.00
2023-05-05T15:51:22.312Z,34.51
2023-05-05T15:54:25.091Z,34.92
2023-05-05T15:57:27.696Z,34.84
2023-05-05T16:00:31.537Z,34.53
2023-05-05T16:03:34.418Z,35.08
2023-05-05T16:06:37.175Z,35.02
2023-05-05T16:09:39.764Z,35.40
2023-05-05T16:12:42.361Z,35.76
2023-05-05T16:15:44.977Z,36.36
2023-05-05T16:18:47.831Z,36.56
2023-05-05T16:21:50.407Z,36.71
2023-05-05T16:24:53.164Z,36.87
2023-05-05T16:27:57.601Z,37.07
2023-05-05T16:31:03.478Z,36.99
2023-05-05T16:34:06.582Z,37.24
2023-05-05T16:37:09.252Z,36.88
2023-05-05T16:40:12.359Z,36.92
2023-05-05T16:43:14.987Z,36.73
2023-05-05T16:46:18.308Z,37.16
2023-05-05T16:49:21.238Z,37.70
2023-05-05T16:52:23.800Z,38.38
2023-05-05T16:55:26.386Z,38.84
2023-05-05T16:58:29.056Z,39.25
2023-05-05T17:01:32.181Z,39.47
2023-05-05T17:04:34.893Z,39.49
2023-05-05T17:07:37.537Z,39.35
2023-05-05T17:10:41.515Z,39.86
2023-05-05T17:13:44.202Z,39.85
2023-05-05T17:16:50.854Z,40.39
2023-05-05T17:19:53.621Z,40.77
2023-05-05T17:22:56.494Z,41.07
2023-05-05T17:26:06.029Z,41.48
2023-05-05T17:29:09.276Z,42.22
2023-05-05T17:32:12.972Z,42.26
2023-05-05T17:35:15.645Z,42.42
2023-05-05T17:38:18.166Z,42.58
2023-05-05T17:41:27.117Z,42.71
2023-05-05T17:44:31.490Z,43.16
2023-05-05T17:47:34.107Z,43.35
2023-05-05T17:50:37.057Z,42.91
2023-05-05T17:53:39.622Z,43.64
2023-05-05T17:56:42.385Z,44.08
2023-05-05T17:59:50.167Z,44.73
2023-05-05T18:02:52.950Z,45.17
2023-05-05T18:05:56.318Z,45.05
2023-05-05T18:08:58.920Z,45.01
2023-05-05T18:12:05.336Z,45.45
2023-05-05T18:15:09.335Z,45.52
2023-05-05T18:18:12.224Z,45.95
2023-05-05T18:21:14.870Z,45.70
2023-05-05T18:24:20.449Z,46.47
2023-05-05T18:27:53.488Z,46.69
2023-05-05T18:30:56.422Z,46.59
2023-05-05T18:33:58.982Z,46.69
2023-05-05T18:37:01.653Z,47.58
2023-05-05T18:40:04.914Z,47.09
2023-05-05T18:43:09.848Z,46.67
2023-05-05T18:46:12.719Z,47.97
2023-05-05T18:49:23.232Z,47.38
2023-05-05T18:52:27.563Z,47.58
2023-05-05T18:55:30.167Z,48.01
2023-05-05T18:58:32.990Z,47.85
2023-05-05T19:05:36.121Z,48.75
2023-05-05T19:08:38.820Z,48.27
2023-05-05T19:11:42.944Z,48.13
2023-05-05T19:18:41.252Z,48.62
2023-05-05T19:21:51.894Z,48.28
2023-05-05T19:24:54.461Z,48.87
2023-05-05T19:27:57.023Z,48.62
2023-05-05T19:31:09.103Z,48.99
2023-05-05T19:34:11.665Z,48.03
2023-05-05T19:37:14.305Z,48.62
2023-05-05T19:40:16.815Z,48.85
2023-05-05T19:43:19.662Z,48.92
2023-05-05T19:46:23.892Z,48.92
2023-05-05T19:53:20.160Z,48.86
2023-05-05T19:56:23.956Z,48.92
2023-05-05T20:03:36.841Z,49.11
2023-05-05T20:06:39.680Z,49.26
2023-05-05T20:09:42.199Z,49.22
2023-05-05T20:12:48.973Z,48.88
2023-05-05T20:15:51.785Z,49.53
2023-05-05T20:18:54.438Z,49.19
2023-05-05T20:25:47.368Z,49.31
2023-05-05T20:28:49.928Z,49.05
2023-05-05T20:31:52.567Z,49.42
2023-05-05T20:34:55.535Z,49.52
2023-05-05T20:41:49.184Z,49.91
2023-05-05T20:44:51.733Z,49.91
2023-05-05T20:51:48.144Z,50.10
2023-05-05T20:54:50.713Z,50.11
2023-05-05T20:57:53.274Z,50.38
2023-05-05T21:00:56.127Z,50.01
2023-05-05T21:04:00.429Z,50.21
2023-05-05T21:07:03.079Z,50.57
2023-05-05T21:10:06.330Z,50.47
2023-05-05T21:13:08.983Z,50.67
2023-05-05T21:16:19.540Z,50.33
2023-05-05T21:19:22.295Z,50.90
2023-05-05T21:28:37.790Z,50.89
2023-05-05T21:35:19.172Z,51.75
2023-05-05T21:38:32.079Z,51.34
2023-05-05T21:42:30.080Z,51.66
2023-05-05T21:45:32.672Z,52.06
2023-05-05T21:48:35.347Z,51.87
2023-05-05T21:52:04.974Z,51.91
2023-05-05T21:55:07.901Z,52.87
2023-05-05T21:58:10.869Z,52.23
2023-05-05T22:01:13.482Z,52.78
2023-05-05T22:04:16.169Z,52.09
2023-05-05T22:07:19.151Z,52.89
2023-05-05T22:10:21.734Z,52.49
2023-05-05T22:13:24.396Z,52.77
2023-05-05T22:16:29.371Z,52.76
2023-05-05T22:19:32.053Z,52.67
2023-05-05T22:22:34.819Z,52.60
2023-05-05T22:25:37.410Z,52.53
2023-05-05T22:28:39.968Z,53.06
2023-05-05T22:31:42.576Z,53.25
2023-05-05T22:34:45.118Z,52.39
2023-05-05T22:38:03.134Z,52.52
2023-05-05T22:41:06.574Z,53.24
2023-05-05T22:44:09.099Z,52.97
2023-05-05T22:47:11.703Z,52.78
2023-05-05T22:50:14.586Z,53.04
2023-05-05T22:53:17.342Z,52.60
2023-05-05T22:56:19.833Z,52.82
2023-05-05T22:59:22.403Z,52.83
2023-05-05T23:02:26.767Z,52.86
2023-05-05T23:05:29.554Z,52.76
2023-05-05T23:08:32.215Z,53.19
2023-05-05T23:11:36.109Z,53.35
2023-05-05T23:14:38.778Z,53.22
2023-05-05T23:17:41.407Z,53.61
2023-05-05T23:20:44.119Z,53.06
2023-05-05T23:23:46.714Z,53.35
2023-05-05T23:26:49.304Z,53.30
2023-05-05T23:29:51.915Z,53.99
2023-05-05T23:32:54.989Z,53.58
2023-05-05T23:35:57.644Z,53.36
2023-05-05T23:39:00.337Z,53.56
2023-05-05T23:42:02.971Z,53.31
2023-05-05T23:45:10.293Z,54.08
2023-05-05T23:48:13.109Z,53.61
2023-05-05T23:51:15.905Z,53.90
2023-05-05T23:54:18.748Z,54.11
2023-05-05T23:57:21.235Z,54.17
